CheckWX is a tool to help pilots better visualize weather data.  It is not intended as a substitute for an official pre-flight weather briefing.

13:20:50 UTC

KRFD TAF
Chicago / Rockford International Airport
Chicago/Rockford, Illinois, USA
KRFD 181207Z 1812/1912 18010KT 4SM -TSRA BR SCT008 BKN035CB OVC080 TEMPO 1812/1813 30025G45KT 1SM +TSRA BR BKN010 OVC012CB FM181400 22014G24KT P6SM -SHRA BKN040 BKN250 PROB30 1821/1901 -TSRA BKN040CB FM190100 24010KT P6SM SCT050 BKN250 FM190800 33006KT 4SM BR BKN025

Aug-18@
12:00 UTC

Aug-18 @ 12:00 UTC

Aug-18@
14:00 UTC

Aug-18 @ 14:00 UTC

KRFD 181207Z 1812/1912 18010KT 4SM -TSRA BR SCT008 BKN035CB OVC080
Wind
  • 180° at 10 KTS
Conditions
Light Thunderstorm, Light Rain, Mist
Cloud Levels
  • Scattered at 800' AGL
  • Broken at 3,500' AGL
  • Overcast at 8,000' AGL

Aug-18@
12:00 UTC

Aug-18 @ 12:00 UTC

Aug-18@
13:00 UTC

Aug-18 @ 13:00 UTC

TEMPO 1812/1813 30025G45KT 1SM +TSRA BR BKN010 OVC012CB

Expired

Wind
  • 300° at 25 KTS
  • {Gusting to 45 KTS
Conditions
Heavy Thunderstorm, Heavy Rain, Mist
Cloud Levels
  • Broken at 1,000' AGL
  • Overcast at 1,200' AGL

Aug-18@
14:00 UTC

Aug-18 @ 14:00 UTC

Aug-19@
01:00 UTC

Aug-19 @ 01:00 UTC

FM181400 22014G24KT P6SM -SHRA BKN040 BKN250

From

From Standard forecast or significant change

Wind
  • 220° at 14 KTS
  • {Gusting to 24 KTS
Conditions
Light Rain
Cloud Levels
  • Broken at 4,000' AGL
  • Broken at 25,000' AGL

Aug-18@
21:00 UTC

Aug-18 @ 21:00 UTC

Aug-19@
01:00 UTC

Aug-19 @ 01:00 UTC

PROB30 1821/1901 -TSRA BKN040CB

Probable - 30% Likelihood

Probable - 30% Likelihood during this time.

Conditions
Light Thunderstorm, Light Rain
Cloud Levels
  • Broken at 4,000' AGL

Aug-19@
01:00 UTC

Aug-19 @ 01:00 UTC

Aug-19@
08:00 UTC

Aug-19 @ 08:00 UTC

FM190100 24010KT P6SM SCT050 BKN250

From

From Standard forecast or significant change

Wind
  • 240° at 10 KTS
Cloud Levels
  • Scattered at 5,000' AGL
  • Broken at 25,000' AGL

Aug-19@
08:00 UTC

Aug-19 @ 08:00 UTC

Aug-19@
12:00 UTC

Aug-19 @ 12:00 UTC

FM190800 33006KT 4SM BR BKN025

From

From Standard forecast or significant change

Wind
  • 330° at 6 KTS
Conditions
Mist
Cloud Levels
  • Broken at 2,500' AGL